createdAt,value
2022-10-29T00:00:45.258Z,95.30
2022-10-29T00:02:55.703Z,95.30
2022-10-29T00:05:05.188Z,95.10
2022-10-29T00:07:13.878Z,95.00
2022-10-29T00:09:28.236Z,94.90
2022-10-29T00:11:35.772Z,95.00
2022-10-29T00:13:41.103Z,95.20
2022-10-29T00:15:48.973Z,95.50
2022-10-29T00:17:56.357Z,95.20
2022-10-29T00:20:04.051Z,95.20
2022-10-29T00:22:12.276Z,95.10
2022-10-29T00:24:19.001Z,95.10
2022-10-29T00:26:23.085Z,94.70
2022-10-29T00:28:27.260Z,94.90
2022-10-29T00:30:37.145Z,94.90
2022-10-29T00:32:47.295Z,95.10
2022-10-29T00:34:56.373Z,95.10
2022-10-29T00:37:10.545Z,94.90
2022-10-29T00:39:17.844Z,94.70
2022-10-29T00:41:30.382Z,94.30
2022-10-29T00:43:38.950Z,94.00
2022-10-29T00:45:46.697Z,93.70
2022-10-29T00:47:52.719Z,93.40
2022-10-29T00:50:10.594Z,93.00
2022-10-29T00:52:26.975Z,92.90
2022-10-29T00:54:37.379Z,92.80
2022-10-29T00:57:01.937Z,92.90
2022-10-29T00:59:06.367Z,93.00
2022-10-29T01:01:11.580Z,93.00
2022-10-29T01:03:23.017Z,92.10
2022-10-29T01:05:29.342Z,92.00
2022-10-29T01:07:33.670Z,92.10
2022-10-29T01:09:39.134Z,92.20
2022-10-29T01:11:49.184Z,92.00
2022-10-29T01:14:06.861Z,92.50
2022-10-29T01:16:25.363Z,92.40
2022-10-29T01:18:32.280Z,92.30
2022-10-29T01:20:42.501Z,92.30
2022-10-29T01:22:52.356Z,91.50
2022-10-29T01:25:18.621Z,91.80
2022-10-29T01:27:43.911Z,92.00
2022-10-29T01:30:09.226Z,91.90
2022-10-29T01:32:18.383Z,92.00
2022-10-29T01:34:37.518Z,92.00
2022-10-29T01:37:02.791Z,92.20
2022-10-29T01:39:40.367Z,92.10
2022-10-29T01:42:08.923Z,91.80
2022-10-29T01:44:13.184Z,91.90
2022-10-29T01:46:21.826Z,91.70
2022-10-29T01:48:37.811Z,91.50
2022-10-29T01:50:41.988Z,91.50
2022-10-29T01:52:49.146Z,91.80
2022-10-29T01:54:53.588Z,92.00
2022-10-29T01:56:57.988Z,91.90
2022-10-29T01:59:28.708Z,91.60
2022-10-29T02:02:10.283Z,91.50
2022-10-29T02:04:32.522Z,91.40
2022-10-29T02:06:56.359Z,91.50
2022-10-29T02:09:09.535Z,91.20
2022-10-29T02:11:35.804Z,91.30
2022-10-29T02:13:42.144Z,91.10
2022-10-29T02:15:53.453Z,90.90
2022-10-29T02:18:05.879Z,90.60
2022-10-29T02:20:11.474Z,90.40
2022-10-29T02:22:20.397Z,90.50
2022-10-29T02:24:26.807Z,90.50
2022-10-29T02:26:30.923Z,90.70
2022-10-29T02:28:37.829Z,90.50
2022-10-29T02:30:44.094Z,90.30
2022-10-29T02:32:48.855Z,90.00
2022-10-29T02:34:53.171Z,89.80
2022-10-29T02:36:57.930Z,89.90
2022-10-29T02:39:04.489Z,89.20
2022-10-29T02:41:18.784Z,90.00
2022-10-29T02:43:25.140Z,89.30
2022-10-29T02:45:33.485Z,89.60
2022-10-29T02:47:39.491Z,89.20
2022-10-29T02:49:46.765Z,89.50
2022-10-29T02:51:51.716Z,89.20
2022-10-29T02:53:59.185Z,88.70
2022-10-29T02:56:03.537Z,88.90
2022-10-29T02:58:09.700Z,88.90
2022-10-29T03:00:18.788Z,88.90
2022-10-29T03:02:25.123Z,87.90
2022-10-29T03:04:29.711Z,87.50
2022-10-29T03:06:34.589Z,89.10
2022-10-29T03:08:42.432Z,88.50
2022-10-29T03:10:47.134Z,87.90
2022-10-29T03:12:54.413Z,86.10
2022-10-29T03:15:01.581Z,86.20
2022-10-29T03:17:06.080Z,86.00
2022-10-29T03:19:14.924Z,85.80
2022-10-29T03:21:21.724Z,87.30
2022-10-29T03:23:26.751Z,86.00
2022-10-29T03:25:37.921Z,85.90
2022-10-29T03:27:44.864Z,86.00
2022-10-29T03:29:48.924Z,84.90
2022-10-29T03:31:57.794Z,87.00
2022-10-29T03:34:08.294Z,85.50
2022-10-29T03:36:12.960Z,85.40
2022-10-29T03:38:21.421Z,85.80
2022-10-29T03:40:28.840Z,85.10
2022-10-29T03:42:33.198Z,85.60
2022-10-29T03:44:39.626Z,85.40
2022-10-29T03:46:45.942Z,85.50
2022-10-29T03:48:50.846Z,86.10
2022-10-29T03:50:58.535Z,85.40
2022-10-29T03:53:06.985Z,86.20
2022-10-29T03:55:11.346Z,85.10
2022-10-29T03:57:21.752Z,85.30
2022-10-29T03:59:31.188Z,85.40
2022-10-29T04:01:45.207Z,84.60
2022-10-29T04:03:51.303Z,83.80
2022-10-29T04:05:58.717Z,83.90
2022-10-29T04:08:03.094Z,85.30
2022-10-29T04:10:11.790Z,84.70
2022-10-29T04:12:22.487Z,83.10
2022-10-29T04:14:30.895Z,83.30
2022-10-29T04:16:35.013Z,83.00
2022-10-29T04:18:39.938Z,84.00
2022-10-29T04:22:10.252Z,84.20
2022-10-29T04:25:14.341Z,82.90
2022-10-29T04:30:28.181Z,83.70
2022-10-29T04:32:40.345Z,84.00
2022-10-29T04:34:45.232Z,83.40
2022-10-29T04:36:55.217Z,83.00
2022-10-29T04:39:03.292Z,83.00
2022-10-29T04:41:08.325Z,82.90
2022-10-29T04:43:18.962Z,83.30
2022-10-29T04:45:27.042Z,82.90
2022-10-29T04:47:31.613Z,81.90
2022-10-29T04:49:41.957Z,82.30
2022-10-29T04:52:00.073Z,82.10
2022-10-29T04:54:05.116Z,83.10
2022-10-29T04:56:11.078Z,83.30
2022-10-29T04:58:18.704Z,84.70
2022-10-29T05:00:25.191Z,82.60
2022-10-29T05:02:41.787Z,82.60
2022-10-29T05:04:53.108Z,81.80
2022-10-29T05:07:04.047Z,81.60
2022-10-29T05:09:11.232Z,81.30
2022-10-29T05:11:22.391Z,81.20
2022-10-29T05:13:32.616Z,81.80
2022-10-29T05:15:36.975Z,82.00
2022-10-29T05:17:43.533Z,82.40
2022-10-29T05:19:51.569Z,83.20
2022-10-29T05:21:55.673Z,81.20
2022-10-29T05:24:00.838Z,81.70
2022-10-29T05:26:06.842Z,81.00
2022-10-29T05:28:14.766Z,81.10
2022-10-29T05:30:21.209Z,81.40
2022-10-29T05:32:30.528Z,81.40
2022-10-29T05:34:38.376Z,81.00
2022-10-29T05:36:44.380Z,82.00
2022-10-29T05:38:48.598Z,81.30
2022-10-29T05:40:53.404Z,81.70
2022-10-29T05:42:57.729Z,81.60
2022-10-29T05:45:02.758Z,82.60
2022-10-29T05:47:07.856Z,82.50
2022-10-29T05:49:14.556Z,81.20
2022-10-29T05:51:18.788Z,81.20
2022-10-29T05:53:25.155Z,80.60
2022-10-29T05:55:30.197Z,80.30
2022-10-29T05:57:41.071Z,80.80
2022-10-29T05:59:55.165Z,80.10
2022-10-29T06:02:02.495Z,80.60
2022-10-29T06:04:06.807Z,80.20
2022-10-29T06:06:12.357Z,81.30
2022-10-29T06:08:16.732Z,81.30
2022-10-29T06:10:21.658Z,81.60
2022-10-29T06:12:32.479Z,81.00
2022-10-29T06:14:41.039Z,81.50
2022-10-29T06:16:45.144Z,82.30
2022-10-29T06:18:50.758Z,81.80
2022-10-29T06:21:01.077Z,80.90
2022-10-29T06:23:07.723Z,81.10
2022-10-29T06:25:16.677Z,81.20
2022-10-29T06:27:26.760Z,80.90
2022-10-29T06:29:33.567Z,80.90
2022-10-29T06:31:39.927Z,81.00
2022-10-29T06:33:47.039Z,81.00
2022-10-29T06:35:51.984Z,81.00
2022-10-29T06:37:59.182Z,82.30
2022-10-29T06:40:07.113Z,82.30
2022-10-29T06:42:12.459Z,82.90
2022-10-29T06:44:20.853Z,82.50
2022-10-29T06:46:27.292Z,83.20
2022-10-29T06:48:31.422Z,82.40
2022-10-29T06:50:38.853Z,81.60
2022-10-29T06:52:43.091Z,81.50
2022-10-29T06:54:52.313Z,82.00
2022-10-29T06:57:03.916Z,82.70
2022-10-29T06:59:11.381Z,82.20
2022-10-29T07:01:15.311Z,82.70
2022-10-29T07:03:21.014Z,83.60
2022-10-29T07:05:30.461Z,83.50
2022-10-29T07:07:38.307Z,83.80
2022-10-29T07:09:43.923Z,84.10
2022-10-29T07:11:50.822Z,84.70
2022-10-29T07:13:54.846Z,85.20
2022-10-29T07:15:59.283Z,85.20
2022-10-29T07:18:03.304Z,85.40
2022-10-29T07:20:08.627Z,84.80
2022-10-29T07:22:13.949Z,84.50
2022-10-29T07:24:19.336Z,84.80
2022-10-29T07:26:23.170Z,84.90
2022-10-29T07:28:31.577Z,84.90
2022-10-29T07:30:36.956Z,84.90
2022-10-29T07:32:41.128Z,84.80
2022-10-29T07:34:47.703Z,84.20
2022-10-29T07:36:51.867Z,84.20
2022-10-29T07:38:56.108Z,84.00
2022-10-29T07:41:02.401Z,84.90
2022-10-29T07:43:10.837Z,84.40
2022-10-29T07:45:14.899Z,84.20
2022-10-29T07:47:22.031Z,83.40
2022-10-29T07:49:44.794Z,83.10
2022-10-29T07:51:49.566Z,83.30
2022-10-29T07:53:57.020Z,83.10
2022-10-29T07:56:04.103Z,83.30
2022-10-29T07:58:09.064Z,84.20
2022-10-29T08:00:17.493Z,84.50
2022-10-29T08:02:28.132Z,84.50
2022-10-29T08:04:32.632Z,84.30
2022-10-29T08:06:43.450Z,84.40
2022-10-29T08:08:50.165Z,84.40
2022-10-29T08:10:54.425Z,84.80
2022-10-29T08:13:01.954Z,84.80
2022-10-29T08:15:09.633Z,84.80
2022-10-29T08:17:14.999Z,85.00
2022-10-29T08:19:19.421Z,85.00
2022-10-29T08:21:24.111Z,85.40
2022-10-29T08:23:28.503Z,85.60
2022-10-29T08:25:35.212Z,85.70
2022-10-29T08:27:41.908Z,86.00
2022-10-29T08:29:48.592Z,86.10
2022-10-29T08:31:52.962Z,86.50
2022-10-29T08:34:00.179Z,86.30
2022-10-29T08:36:06.603Z,86.60
2022-10-29T08:38:18.509Z,86.30
2022-10-29T08:40:30.698Z,86.40
2022-10-29T08:42:56.344Z,86.80
2022-10-29T08:45:09.859Z,87.20
2022-10-29T08:47:24.343Z,87.10
2022-10-29T08:49:29.829Z,87.20
2022-10-29T08:51:42.882Z,87.60
2022-10-29T08:54:25.153Z,87.80
2022-10-29T08:56:29.357Z,88.20
2022-10-29T08:58:38.837Z,88.10
2022-10-29T09:00:45.273Z,87.80
2022-10-29T09:03:00.329Z,87.60
2022-10-29T09:05:08.757Z,88.00
2022-10-29T09:07:26.919Z,88.10
2022-10-29T09:09:41.249Z,88.10
2022-10-29T09:12:01.317Z,88.00
2022-10-29T09:14:10.721Z,88.30
2022-10-29T09:16:21.228Z,88.50
2022-10-29T09:18:33.412Z,88.50
2022-10-29T09:20:48.199Z,88.80
2022-10-29T09:23:02.504Z,88.70
2022-10-29T09:25:23.385Z,88.20
2022-10-29T09:27:51.281Z,88.60
2022-10-29T09:29:58.262Z,88.60
2022-10-29T09:32:06.710Z,88.60
2022-10-29T09:34:29.657Z,88.60
2022-10-29T09:36:36.068Z,88.80
2022-10-29T09:39:03.363Z,88.70
2022-10-29T09:41:07.497Z,88.70
2022-10-29T09:43:17.059Z,89.00
2022-10-29T09:45:25.034Z,89.00
2022-10-29T09:47:44.835Z,88.80
2022-10-29T09:49:52.360Z,89.00
2022-10-29T09:52:22.729Z,88.80
2022-10-29T09:54:26.811Z,89.00
2022-10-29T09:56:32.790Z,89.30
2022-10-29T09:58:42.677Z,89.20
2022-10-29T10:00:47.362Z,89.60
2022-10-29T10:03:00.793Z,89.50
2022-10-29T10:05:15.451Z,89.70
2022-10-29T10:07:22.707Z,90.00
2022-10-29T10:09:28.730Z,89.70
2022-10-29T10:11:37.043Z,89.90
2022-10-29T10:13:55.414Z,89.40
2022-10-29T10:16:07.481Z,89.60
2022-10-29T10:18:22.580Z,90.00
2022-10-29T10:20:36.606Z,89.70
2022-10-29T10:22:47.535Z,89.60
2022-10-29T10:24:52.843Z,89.80
2022-10-29T10:26:57.617Z,89.90
2022-10-29T10:29:15.131Z,89.90
2022-10-29T10:31:22.285Z,89.90
2022-10-29T10:33:29.479Z,90.00
2022-10-29T10:35:36.829Z,90.00
2022-10-29T10:37:44.135Z,90.10
2022-10-29T10:39:53.736Z,90.00
2022-10-29T10:42:05.686Z,90.00
2022-10-29T10:44:12.433Z,90.10
2022-10-29T10:46:22.518Z,90.10
2022-10-29T10:48:33.785Z,90.30
2022-10-29T10:50:44.409Z,90.60
2022-10-29T10:52:48.761Z,90.90
2022-10-29T10:55:00.440Z,90.90
2022-10-29T10:57:18.102Z,90.90
2022-10-29T10:59:41.150Z,91.00
2022-10-29T11:01:47.556Z,91.10
2022-10-29T11:04:16.797Z,91.30
2022-10-29T11:06:43.366Z,91.40
2022-10-29T11:09:08.275Z,91.40
2022-10-29T11:11:23.962Z,91.50
2022-10-29T11:13:29.795Z,91.60
2022-10-29T11:15:46.405Z,91.60
2022-10-29T11:17:57.213Z,91.50
2022-10-29T11:20:23.098Z,91.60
2022-10-29T11:22:35.978Z,91.80
2022-10-29T11:24:48.986Z,92.00
2022-10-29T11:26:57.443Z,92.10
2022-10-29T11:29:04.423Z,92.10
2022-10-29T11:31:12.530Z,92.10
2022-10-29T11:33:28.032Z,92.00
2022-10-29T11:35:43.038Z,92.10
2022-10-29T11:37:59.593Z,92.20
2022-10-29T11:40:29.976Z,92.10
2022-10-29T11:42:37.147Z,92.30
2022-10-29T11:44:44.956Z,92.50
2022-10-29T11:46:58.981Z,92.50
2022-10-29T11:49:15.326Z,92.50
2022-10-29T11:51:35.306Z,92.60
2022-10-29T11:53:42.868Z,92.90
2022-10-29T11:55:53.291Z,93.10
2022-10-29T11:58:02.634Z,93.10
2022-10-29T12:00:10.314Z,93.30
2022-10-29T12:02:34.626Z,93.40
2022-10-29T12:04:48.940Z,93.50
2022-10-29T12:06:55.946Z,93.80
2022-10-29T12:09:00.202Z,93.80
2022-10-29T12:11:18.230Z,93.90
2022-10-29T12:13:37.196Z,93.90
2022-10-29T12:15:43.092Z,93.80
2022-10-29T12:17:53.650Z,93.70
2022-10-29T12:20:03.237Z,93.80
2022-10-29T12:22:18.851Z,93.80
2022-10-29T12:24:35.082Z,93.70
2022-10-29T12:26:42.198Z,93.80
2022-10-29T12:28:56.763Z,93.80
2022-10-29T12:31:00.952Z,93.80
2022-10-29T12:33:07.287Z,93.90
2022-10-29T12:35:23.774Z,94.00
2022-10-29T12:37:48.355Z,94.10
2022-10-29T12:39:58.679Z,94.20
2022-10-29T12:42:18.184Z,94.10
2022-10-29T12:44:25.141Z,94.00
2022-10-29T12:46:38.771Z,94.10
2022-10-29T12:48:47.230Z,94.40
2022-10-29T12:50:52.030Z,94.20
2022-10-29T12:53:03.646Z,94.30
2022-10-29T12:55:11.075Z,94.20
2022-10-29T12:57:15.732Z,94.40
2022-10-29T12:59:25.152Z,94.50
2022-10-29T13:02:09.661Z,94.60
2022-10-29T13:03:55.902Z,94.60
2022-10-29T13:06:03.931Z,94.70
2022-10-29T13:08:08.534Z,94.70
2022-10-29T13:10:27.236Z,95.00
2022-10-29T13:12:45.465Z,94.70
2022-10-29T13:14:58.907Z,94.80
2022-10-29T13:17:03.418Z,94.90
2022-10-29T13:19:27.263Z,95.00
2022-10-29T13:21:43.268Z,95.10
2022-10-29T13:24:02.581Z,95.10
2022-10-29T13:26:09.785Z,95.20
2022-10-29T13:28:16.769Z,95.30
2022-10-29T13:30:26.463Z,95.20
2022-10-29T13:32:33.805Z,95.40
2022-10-29T13:34:49.815Z,95.20
2022-10-29T13:36:53.577Z,95.20
2022-10-29T13:39:06.407Z,95.20
2022-10-29T13:41:13.036Z,95.10
2022-10-29T13:43:19.094Z,95.10
2022-10-29T13:45:25.120Z,95.40
2022-10-29T13:47:31.718Z,95.20
2022-10-29T13:49:35.547Z,95.10
2022-10-29T13:51:45.310Z,95.20
2022-10-29T13:54:00.924Z,95.30
2022-10-29T13:56:04.858Z,95.40
2022-10-29T13:58:19.610Z,95.40
2022-10-29T14:00:26.562Z,95.50
2022-10-29T14:02:43.532Z,95.80
2022-10-29T14:04:50.825Z,95.80
2022-10-29T14:06:56.675Z,95.70
2022-10-29T14:09:13.034Z,95.70
2022-10-29T14:11:36.553Z,96.00
2022-10-29T14:13:50.588Z,96.20
2022-10-29T14:16:10.036Z,96.10
2022-10-29T14:18:24.809Z,96.00
2022-10-29T14:20:31.262Z,96.10
2022-10-29T14:22:35.124Z,96.00
2022-10-29T14:24:42.306Z,95.80
2022-10-29T14:26:48.398Z,96.10
2022-10-29T14:28:52.883Z,96.10
2022-10-29T14:31:18.501Z,96.10
2022-10-29T14:33:26.589Z,96.20
2022-10-29T14:35:32.228Z,96.20
2022-10-29T14:37:38.649Z,96.40
2022-10-29T14:39:57.115Z,96.30
2022-10-29T14:42:02.411Z,96.10
2022-10-29T14:44:20.625Z,96.10
2022-10-29T14:46:27.805Z,96.30
2022-10-29T14:48:32.133Z,96.40
2022-10-29T14:50:38.039Z,96.60
2022-10-29T14:52:49.677Z,96.80
2022-10-29T14:54:56.335Z,96.80
2022-10-29T14:57:06.893Z,96.70
2022-10-29T14:59:13.168Z,97.00
2022-10-29T15:01:21.384Z,96.90
2022-10-29T15:03:28.019Z,97.00
2022-10-29T15:05:34.376Z,97.20
2022-10-29T15:07:38.199Z,97.40
2022-10-29T15:09:45.625Z,97.60
2022-10-29T15:11:59.014Z,97.80
2022-10-29T15:14:03.946Z,97.80
2022-10-29T15:16:12.384Z,97.70
2022-10-29T15:18:21.316Z,97.60
2022-10-29T15:20:26.581Z,97.60
2022-10-29T15:22:34.097Z,97.80
2022-10-29T15:24:40.121Z,98.00
2022-10-29T15:26:49.107Z,98.20
2022-10-29T15:28:54.734Z,98.30
2022-10-29T15:31:02.108Z,98.30
2022-10-29T15:33:11.235Z,98.40
2022-10-29T15:35:21.423Z,98.30
2022-10-29T15:37:27.577Z,98.40
2022-10-29T15:39:45.096Z,98.60
2022-10-29T15:41:50.753Z,98.80
2022-10-29T15:43:57.392Z,98.90
2022-10-29T15:46:01.439Z,98.90
2022-10-29T15:48:15.303Z,98.90
2022-10-29T15:50:22.076Z,99.00
2022-10-29T15:52:29.117Z,99.00
2022-10-29T15:54:35.413Z,99.10
2022-10-29T15:56:41.583Z,99.00
2022-10-29T15:58:45.787Z,98.90
2022-10-29T16:00:52.393Z,99.00
2022-10-29T16:03:02.482Z,98.70
2022-10-29T16:05:07.218Z,99.10
2022-10-29T16:07:16.730Z,98.50
2022-10-29T16:09:22.707Z,98.60
2022-10-29T16:11:27.829Z,98.70
2022-10-29T16:13:35.099Z,98.80
2022-10-29T16:15:43.298Z,98.80
2022-10-29T16:17:49.693Z,98.70
2022-10-29T16:19:58.606Z,98.80
2022-10-29T16:22:04.262Z,99.10
2022-10-29T16:24:10.986Z,99.20
2022-10-29T16:26:18.949Z,99.20
2022-10-29T16:28:25.305Z,99.20
2022-10-29T16:30:29.328Z,99.40
2022-10-29T16:32:33.597Z,99.50
2022-10-29T16:34:37.857Z,99.50
2022-10-29T16:36:41.641Z,99.20
2022-10-29T16:38:48.082Z,98.90
2022-10-29T16:40:53.863Z,98.90
2022-10-29T16:42:58.656Z,98.80
2022-10-29T16:45:12.850Z,98.80
2022-10-29T16:47:20.161Z,98.80
2022-10-29T16:49:23.966Z,98.80
2022-10-29T16:51:30.572Z,98.60
2022-10-29T16:53:37.263Z,98.70
2022-10-29T16:55:41.533Z,98.80
2022-10-29T16:57:45.467Z,98.90
2022-10-29T16:59:51.607Z,99.00
2022-10-29T17:01:55.809Z,98.70
2022-10-29T17:04:04.068Z,98.50
2022-10-29T17:06:11.133Z,98.40
2022-10-29T17:08:16.284Z,98.30
2022-10-29T17:10:22.200Z,98.40
2022-10-29T17:12:27.959Z,98.50
2022-10-29T17:14:31.902Z,98.40
2022-10-29T17:16:38.255Z,98.50
2022-10-29T17:18:44.246Z,98.50
2022-10-29T17:21:03.348Z,98.70
2022-10-29T17:23:09.731Z,99.10
2022-10-29T17:25:15.607Z,98.90
2022-10-29T17:27:20.345Z,98.90
2022-10-29T17:29:33.820Z,98.90
2022-10-29T17:31:41.946Z,98.90
2022-10-29T17:33:45.804Z,98.80
2022-10-29T17:35:52.251Z,98.80
2022-10-29T17:37:58.394Z,99.00
2022-10-29T17:40:05.150Z,99.00
2022-10-29T17:42:15.554Z,99.10
2022-10-29T17:44:21.371Z,99.30
2022-10-29T17:46:25.205Z,99.30
2022-10-29T17:48:29.025Z,99.50
2022-10-29T17:50:35.730Z,99.70
2022-10-29T17:52:41.913Z,99.80
2022-10-29T17:54:46.773Z,99.90
2022-10-29T17:56:51.547Z,99.90
2022-10-29T17:58:57.775Z,99.90
2022-10-29T18:01:07.818Z,99.90
2022-10-29T18:03:12.126Z,99.90
2022-10-29T18:05:20.735Z,99.90
2022-10-29T18:07:25.738Z,99.90
2022-10-29T18:09:30.493Z,99.90
2022-10-29T18:11:36.255Z,99.90
2022-10-29T18:13:42.403Z,99.90
2022-10-29T18:15:46.249Z,99.90
2022-10-29T18:19:54.673Z,99.90
2022-10-29T18:22:00.455Z,99.90
2022-10-29T18:24:04.227Z,99.90
2022-10-29T18:26:26.515Z,99.90
2022-10-29T18:28:30.646Z,99.90
2022-10-29T18:30:36.381Z,99.90
2022-10-29T18:32:40.783Z,99.90
2022-10-29T18:34:44.841Z,99.90
2022-10-29T18:36:50.519Z,99.90
2022-10-29T18:39:01.261Z,99.90
2022-10-29T18:41:05.045Z,99.90
2022-10-29T18:43:11.903Z,99.90
2022-10-29T18:45:15.960Z,99.90
2022-10-29T18:47:20.213Z,99.90
2022-10-29T18:49:26.165Z,99.90
2022-10-29T18:51:32.924Z,99.90
2022-10-29T18:53:37.310Z,99.90
2022-10-29T18:55:43.076Z,99.90
2022-10-29T18:57:50.899Z,99.90
2022-10-29T18:59:56.241Z,99.90
2022-10-29T19:02:02.914Z,99.90
2022-10-29T19:04:10.210Z,99.90
2022-10-29T19:06:19.974Z,99.90
2022-10-29T19:08:25.744Z,99.90
2022-10-29T19:10:32.430Z,99.90
2022-10-29T19:12:36.536Z,99.90
2022-10-29T19:14:44.356Z,99.90
2022-10-29T19:16:50.479Z,99.90
2022-10-29T19:18:59.357Z,99.90
2022-10-29T19:21:22.697Z,99.90
2022-10-29T19:23:29.141Z,99.90
2022-10-29T19:25:37.752Z,99.90
2022-10-29T19:27:46.240Z,99.90
2022-10-29T19:29:52.397Z,99.90
2022-10-29T19:31:56.484Z,99.90
2022-10-29T19:34:02.543Z,99.90
2022-10-29T19:36:09.932Z,99.90
2022-10-29T19:38:13.902Z,99.90
2022-10-29T19:40:20.564Z,99.90
2022-10-29T19:42:29.178Z,99.90
2022-10-29T19:44:32.998Z,99.90
2022-10-29T19:46:39.032Z,99.90
2022-10-29T19:48:45.077Z,99.90
2022-10-29T19:50:57.075Z,99.90
2022-10-29T19:53:02.871Z,99.90
2022-10-29T19:55:12.152Z,99.90
2022-10-29T19:57:16.248Z,99.90
2022-10-29T19:59:23.104Z,99.90
2022-10-29T20:01:27.463Z,99.90
2022-10-29T20:03:35.852Z,99.90
2022-10-29T20:05:44.381Z,99.90
2022-10-29T20:07:51.814Z,99.90
2022-10-29T20:09:55.755Z,99.90
2022-10-29T20:12:02.213Z,99.90
2022-10-29T20:14:08.225Z,99.90
2022-10-29T20:16:13.640Z,99.90
2022-10-29T20:18:19.742Z,99.90
2022-10-29T20:20:28.045Z,99.90
2022-10-29T20:22:35.834Z,99.90
2022-10-29T20:24:46.702Z,99.90
2022-10-29T20:26:54.350Z,99.90
2022-10-29T20:29:02.146Z,99.90
2022-10-29T20:31:22.067Z,99.90
2022-10-29T20:33:30.087Z,99.90
2022-10-29T20:35:34.467Z,99.90
2022-10-29T20:37:41.692Z,99.90
2022-10-29T20:39:48.312Z,99.90
2022-10-29T20:41:53.360Z,99.90
2022-10-29T20:44:00.264Z,99.90
2022-10-29T20:46:06.651Z,99.90
2022-10-29T20:48:11.264Z,99.90
2022-10-29T20:50:17.650Z,99.90
2022-10-29T20:52:25.299Z,99.90
2022-10-29T20:54:29.603Z,99.90
2022-10-29T20:56:39.503Z,99.90
2022-10-29T20:58:48.730Z,99.90
2022-10-29T21:00:57.081Z,99.90
2022-10-29T21:03:03.036Z,99.90
2022-10-29T21:05:10.511Z,99.90
2022-10-29T21:07:17.902Z,99.90
2022-10-29T21:09:26.507Z,99.90
2022-10-29T21:11:33.638Z,99.90
2022-10-29T21:13:38.292Z,99.90
2022-10-29T21:15:45.231Z,99.90
2022-10-29T21:17:52.347Z,99.90
2022-10-29T21:20:01.445Z,99.90
2022-10-29T21:22:06.537Z,99.90
2022-10-29T21:24:12.614Z,99.90
2022-10-29T21:26:23.593Z,99.90
2022-10-29T21:28:29.560Z,99.90
2022-10-29T21:30:36.275Z,99.90
2022-10-29T21:32:40.247Z,99.90
2022-10-29T21:34:48.462Z,99.90
2022-10-29T21:36:54.586Z,99.90
2022-10-29T21:39:01.616Z,99.90
2022-10-29T21:41:10.825Z,99.90
2022-10-29T21:43:17.684Z,99.90
2022-10-29T21:45:22.543Z,99.90
2022-10-29T21:47:28.890Z,99.90
2022-10-29T21:49:35.324Z,99.90
2022-10-29T21:51:39.366Z,99.90
2022-10-29T21:53:46.134Z,99.90
2022-10-29T21:55:51.791Z,99.90
2022-10-29T21:58:14.022Z,99.90
2022-10-29T22:00:20.539Z,99.90
2022-10-29T22:02:33.370Z,99.90
2022-10-29T22:04:37.494Z,99.90
2022-10-29T22:06:43.468Z,99.90
2022-10-29T22:08:49.951Z,99.90
2022-10-29T22:10:58.070Z,99.90
2022-10-29T22:13:03.990Z,99.90
2022-10-29T22:15:08.971Z,99.90
2022-10-29T22:17:13.031Z,99.90
2022-10-29T22:19:20.940Z,99.90
2022-10-29T22:21:28.356Z,99.90
2022-10-29T22:23:49.295Z,99.90
2022-10-29T22:25:55.289Z,99.90
2022-10-29T22:28:01.801Z,99.90
2022-10-29T22:30:06.966Z,99.90
2022-10-29T22:32:14.831Z,99.90
2022-10-29T22:34:20.779Z,99.90
2022-10-29T22:36:26.619Z,99.90
2022-10-29T22:38:33.832Z,99.90
2022-10-29T22:40:45.558Z,99.90
2022-10-29T22:42:54.519Z,99.90
2022-10-29T22:45:01.109Z,99.90
2022-10-29T22:47:07.347Z,99.90
2022-10-29T22:49:13.639Z,99.90
2022-10-29T22:51:25.302Z,99.90
2022-10-29T22:53:32.767Z,99.90
2022-10-29T22:55:37.145Z,99.90
2022-10-29T22:57:45.989Z,99.90
2022-10-29T22:59:52.351Z,99.90
2022-10-29T23:01:56.723Z,99.90
2022-10-29T23:04:05.153Z,99.90
2022-10-29T23:06:13.722Z,99.90
2022-10-29T23:08:26.172Z,99.90
2022-10-29T23:10:31.768Z,99.90
2022-10-29T23:12:41.278Z,99.90
2022-10-29T23:14:46.826Z,99.90
2022-10-29T23:16:50.792Z,99.90
2022-10-29T23:18:59.330Z,99.90
2022-10-29T23:21:03.609Z,99.90
2022-10-29T23:23:11.821Z,99.90
2022-10-29T23:25:16.465Z,99.90
2022-10-29T23:27:22.170Z,99.90
2022-10-29T23:29:26.570Z,99.90
2022-10-29T23:31:33.994Z,99.90
2022-10-29T23:33:38.365Z,99.90
2022-10-29T23:35:44.428Z,99.90
2022-10-29T23:37:51.398Z,99.90
2022-10-29T23:39:55.261Z,99.90
2022-10-29T23:41:59.493Z,99.90
2022-10-29T23:44:05.665Z,99.90
2022-10-29T23:46:17.302Z,99.90
2022-10-29T23:48:23.400Z,99.90
2022-10-29T23:50:30.092Z,99.90
2022-10-29T23:52:34.860Z,99.90
2022-10-29T23:54:41.591Z,99.90
2022-10-29T23:56:48.568Z,99.90
2022-10-29T23:58:53.077Z,99.90
